Time;durP1;ratioP1;P1;durP2;ratioP2;P2;SDS_P1;SDS_P2;PMS_P1;PMS_P2;Temp;Humidity;BMP_temperature;BMP_pressure;BME280_temperature;BME280_humidity;BME280_pressure;Samples;Min_cycle;Max_cycle;Signal;HPM_P1;HPM_P2
2022/05/15 00:01:42;;;;;;;;;;;17.90;88.20;;;;;;5058680;28;20027;-90
2022/05/15 00:04:08;;;;;;;;;;;17.80;88.60;;;;;;5074781;28;20405;-90
2022/05/15 00:06:33;;;;;;;;;;;17.90;88.60;;;;;;5074386;28;19935;-90
2022/05/15 00:08:59;;;;;;;;;;;17.90;88.20;;;;;;5074704;28;20284;-89
2022/05/15 00:11:25;;;;;;;;;;;17.90;88.40;;;;;;5074539;28;20375;-89
2022/05/15 00:13:50;;;;;;;;;;;18.00;88.00;;;;;;5074579;28;19925;-90
2022/05/15 00:16:17;;;;;;;;;;;18.10;87.60;;;;;;5074474;28;19989;-90
2022/05/15 00:18:43;;;;;;;;;;;18.10;87.60;;;;;;5074478;28;19986;-89
2022/05/15 00:21:09;;;;;;;;;;;18.00;87.50;;;;;;5074692;28;20033;-90
2022/05/15 00:23:35;;;;;;;;;;;17.80;88.20;;;;;;5074323;28;20318;-89
2022/05/15 00:26:00;;;;;;;;;;;17.60;88.70;;;;;;5072986;28;20289;-90
2022/05/15 00:28:26;;;;;;;;;;;17.50;89.10;;;;;;5074583;28;19942;-89
2022/05/15 00:30:52;;;;;;;;;;;17.40;89.40;;;;;;5073677;28;20023;-90
2022/05/15 00:33:18;;;;;;;;;;;17.30;89.90;;;;;;5074061;28;20013;-90
2022/05/15 00:35:43;;;;;;;;;;;17.20;90.30;;;;;;5074077;28;19916;-90
2022/05/15 00:38:09;;;;;;;;;;;17.20;90.40;;;;;;5073951;28;19940;-89
2022/05/15 00:40:38;;;;;;;;;;;17.20;90.40;;;;;;5074079;28;20007;-89
2022/05/15 00:43:04;;;;;;;;;;;17.20;90.20;;;;;;5073958;28;19919;-90
2022/05/15 00:45:30;;;;;;;;;;;17.30;90.00;;;;;;5073903;28;19915;-90
2022/05/15 00:47:56;;;;;;;;;;;17.30;89.70;;;;;;5073852;28;19931;-89
2022/05/15 00:50:27;;;;;;;;;;;17.30;89.40;;;;;;5068333;28;19929;-90
2022/05/15 00:52:55;;;;;;;;;;;17.30;89.10;;;;;;5053820;28;20377;-90
2022/05/15 00:55:31;;;;;;;;;;;17.40;88.90;;;;;;5057451;28;19934;-90
2022/05/15 00:58:00;;;;;;;;;;;17.50;88.60;;;;;;5073910;28;19992;-91
2022/05/15 01:00:31;;;;;;;;;;;17.60;88.50;;;;;;5073749;28;19920;-90
2022/05/15 01:03:13;;;;;;;;;;;17.60;88.50;;;;;;5073602;28;20118;-90
2022/05/15 01:05:40;;;;;;;;;;;17.50;88.60;;;;;;5073564;28;20010;-91
2022/05/15 01:08:06;;;;;;;;;;;17.60;88.40;;;;;;5073818;28;19909;-90
2022/05/15 01:10:34;;;;;;;;;;;17.60;88.20;;;;;;5073761;28;20471;-90
2022/05/15 01:12:59;;;;;;;;;;;17.60;88.10;;;;;;5073692;28;19925;-90
2022/05/15 01:15:26;;;;;;;;;;;17.60;88.20;;;;;;5073448;28;19932;-90
2022/05/15 01:17:51;;;;;;;;;;;17.50;88.40;;;;;;5073289;28;19988;-90
2022/05/15 01:20:19;;;;;;;;;;;17.40;88.50;;;;;;5072047;28;19916;-90
2022/05/15 01:22:44;;;;;;;;;;;17.50;88.20;;;;;;5071445;28;19990;-90
2022/05/15 01:25:15;;;;;;;;;;;17.50;88.10;;;;;;5073328;28;20419;-90
2022/05/15 01:27:44;;;;;;;;;;;17.30;88.70;;;;;;5073573;28;19908;-89
2022/05/15 01:30:10;;;;;;;;;;;17.30;88.80;;;;;;5073308;28;20313;-90
2022/05/15 01:33:52;;;;;;;;;;;17.30;88.70;;;;;;5131541;27;19936;-91
2022/05/15 01:36:19;;;;;;;;;;;17.30;88.80;;;;;;5131511;28;20003;-90
2022/05/15 01:38:44;;;;;;;;;;;17.20;88.90;;;;;;5131570;28;19950;-91
2022/05/15 01:41:12;;;;;;;;;;;17.20;88.80;;;;;;5131523;28;19966;-90
2022/05/15 01:43:39;;;;;;;;;;;17.00;89.00;;;;;;5131462;28;20342;-90
2022/05/15 01:46:05;;;;;;;;;;;17.00;89.50;;;;;;5131416;28;19927;-91
2022/05/15 01:48:31;;;;;;;;;;;16.90;89.50;;;;;;5131354;28;19943;-90
2022/05/15 01:50:57;;;;;;;;;;;17.00;89.50;;;;;;5131622;28;20036;-90
2022/05/15 01:53:22;;;;;;;;;;;16.90;89.30;;;;;;5131437;28;19959;-91
2022/05/15 01:55:48;;;;;;;;;;;16.90;89.30;;;;;;5131159;28;20429;-91
2022/05/15 01:58:13;;;;;;;;;;;16.80;89.50;;;;;;5131172;28;20297;-91
2022/05/15 02:00:40;;;;;;;;;;;16.70;89.90;;;;;;5131112;28;19970;-90
2022/05/15 02:03:06;;;;;;;;;;;16.60;90.40;;;;;;5131042;28;20390;-90
2022/05/15 02:05:31;;;;;;;;;;;16.60;90.50;;;;;;5131068;28;20209;-90
2022/05/15 02:07:57;;;;;;;;;;;16.40;90.70;;;;;;5130956;28;19934;-90
2022/05/15 02:10:23;;;;;;;;;;;16.40;90.90;;;;;;5130912;28;19990;-91
2022/05/15 02:12:48;;;;;;;;;;;16.30;91.00;;;;;;5112372;28;20323;-90
2022/05/15 02:15:14;;;;;;;;;;;16.30;90.80;;;;;;5130811;28;19933;-90
2022/05/15 02:17:40;;;;;;;;;;;16.30;90.90;;;;;;5131077;28;19929;-90
2022/05/15 02:20:10;;;;;;;;;;;16.30;91.00;;;;;;5130699;28;20298;-90
2022/05/15 02:22:36;;;;;;;;;;;16.40;91.10;;;;;;5133735;27;19953;-90
2022/05/15 02:25:02;;;;;;;;;;;16.40;90.80;;;;;;5151320;27;19931;-90
2022/05/15 02:27:28;;;;;;;;;;;16.50;90.50;;;;;;5151258;27;20297;-91
2022/05/15 02:29:53;;;;;;;;;;;16.60;90.00;;;;;;5151217;27;19924;-91
2022/05/15 02:32:19;;;;;;;;;;;16.60;89.80;;;;;;5150705;27;19956;-90
2022/05/15 02:34:44;;;;;;;;;;;16.50;89.80;;;;;;5151103;27;19919;-90
2022/05/15 02:37:10;;;;;;;;;;;16.50;89.60;;;;;;5151116;27;19907;-90
2022/05/15 02:39:36;;;;;;;;;;;16.60;89.70;;;;;;5151032;27;19939;-91
2022/05/15 02:42:01;;;;;;;;;;;16.60;89.40;;;;;;5150981;27;19934;-91
2022/05/15 02:44:28;;;;;;;;;;;16.60;89.30;;;;;;5141537;27;19940;-90
2022/05/15 02:46:53;;;;;;;;;;;16.60;89.20;;;;;;5137156;27;20391;-90
2022/05/15 02:52:03;;;;;;;;;;;16.50;89.20;;;;;;5136919;27;19963;-91
2022/05/15 02:54:28;;;;;;;;;;;16.60;89.40;;;;;;5136976;27;19933;-90
2022/05/15 02:56:54;;;;;;;;;;;16.60;89.40;;;;;;5136891;27;19949;-90
2022/05/15 02:59:20;;;;;;;;;;;16.50;89.30;;;;;;5136832;27;20330;-90
2022/05/15 03:01:45;;;;;;;;;;;16.30;89.60;;;;;;5136848;27;20294;-91
2022/05/15 03:04:11;;;;;;;;;;;16.10;90.10;;;;;;5136739;27;20021;-91
2022/05/15 03:06:36;;;;;;;;;;;16.10;90.30;;;;;;5136728;27;19993;-91
2022/05/15 03:09:02;;;;;;;;;;;16.00;90.70;;;;;;5136708;27;19961;-91
2022/05/15 03:11:27;;;;;;;;;;;16.00;90.90;;;;;;5136613;27;19951;-90
2022/05/15 03:13:53;;;;;;;;;;;16.10;90.90;;;;;;5136875;27;19946;-90
2022/05/15 03:16:18;;;;;;;;;;;16.10;90.90;;;;;;5136584;27;19919;-91
2022/05/15 03:18:45;;;;;;;;;;;16.10;90.90;;;;;;5136522;27;20045;-90
2022/05/15 03:21:13;;;;;;;;;;;16.10;90.90;;;;;;5136542;27;19965;-90
2022/05/15 03:28:11;;;;;;;;;;;16.10;91.10;;;;;;5111142;27;19950;-90
2022/05/15 03:30:37;;;;;;;;;;;16.20;90.80;;;;;;5111088;28;20322;-90
2022/05/15 03:33:03;;;;;;;;;;;16.10;90.80;;;;;;5110867;28;19943;-90
2022/05/15 03:35:28;;;;;;;;;;;16.20;90.80;;;;;;5110989;28;19943;-90
2022/05/15 03:37:54;;;;;;;;;;;16.30;90.60;;;;;;5110911;28;20378;-90
2022/05/15 03:40:19;;;;;;;;;;;16.30;90.30;;;;;;5110856;28;20321;-89
2022/05/15 03:42:45;;;;;;;;;;;16.30;90.00;;;;;;5110803;28;19954;-90
2022/05/15 03:45:11;;;;;;;;;;;16.30;89.80;;;;;;5110790;28;20394;-90
2022/05/15 03:47:43;;;;;;;;;;;16.30;89.70;;;;;;5110673;28;19971;-90
2022/05/15 03:50:09;;;;;;;;;;;16.10;89.70;;;;;;5110701;28;20400;-91
2022/05/15 03:52:35;;;;;;;;;;;16.10;90.00;;;;;;5110655;28;19943;-90
2022/05/15 03:55:00;;;;;;;;;;;16.10;90.00;;;;;;5110549;28;19940;-89
2022/05/15 03:57:26;;;;;;;;;;;16.30;89.90;;;;;;5110567;28;19991;-89
2022/05/15 03:59:52;;;;;;;;;;;16.30;89.90;;;;;;5110791;28;20012;-90
2022/05/15 04:02:18;;;;;;;;;;;16.20;90.00;;;;;;5110493;28;19952;-90
2022/05/15 04:04:43;;;;;;;;;;;16.20;90.00;;;;;;5110404;28;19960;-90
2022/05/15 04:07:09;;;;;;;;;;;16.10;89.90;;;;;;5110248;28;19964;-90
2022/05/15 04:09:36;;;;;;;;;;;16.00;90.30;;;;;;5110311;28;20003;-90
2022/05/15 04:12:01;;;;;;;;;;;16.10;90.40;;;;;;5110272;28;19971;-90
2022/05/15 04:14:27;;;;;;;;;;;16.20;90.50;;;;;;5110521;28;19993;-90
2022/05/15 04:16:53;;;;;;;;;;;16.30;90.10;;;;;;5110179;28;19948;-91
2022/05/15 04:19:18;;;;;;;;;;;16.40;89.70;;;;;;5110118;28;19948;-90
2022/05/15 04:21:44;;;;;;;;;;;16.40;89.60;;;;;;5110330;28;19942;-90
2022/05/15 04:24:11;;;;;;;;;;;16.30;89.50;;;;;;5109957;28;20329;-90
2022/05/15 04:26:37;;;;;;;;;;;16.30;89.50;;;;;;5109747;28;20056;-90
2022/05/15 04:29:04;;;;;;;;;;;16.50;89.70;;;;;;5109977;28;20423;-90
2022/05/15 04:34:00;;;;;;;;;;;16.50;89.30;;;;;;5110953;27;20313;-90
2022/05/15 04:36:26;;;;;;;;;;;16.60;89.10;;;;;;5111003;28;19961;-90
2022/05/15 04:38:51;;;;;;;;;;;16.70;89.00;;;;;;5111227;28;20036;-90
2022/05/15 04:41:17;;;;;;;;;;;16.60;89.00;;;;;;5111222;28;19941;-90
2022/05/15 04:43:42;;;;;;;;;;;16.70;89.00;;;;;;5110919;28;19950;-90
2022/05/15 04:46:08;;;;;;;;;;;16.60;88.80;;;;;;5110849;28;20318;-90
2022/05/15 04:48:34;;;;;;;;;;;16.50;89.00;;;;;;5110801;28;20352;-90
2022/05/15 04:51:00;;;;;;;;;;;16.50;89.60;;;;;;5110810;28;19985;-90
2022/05/15 04:53:27;;;;;;;;;;;16.50;89.70;;;;;;5110734;28;19974;-90
2022/05/15 04:55:52;;;;;;;;;;;16.50;89.80;;;;;;5110669;28;19938;-90
2022/05/15 04:58:18;;;;;;;;;;;16.60;89.90;;;;;;5110660;28;19940;-90
2022/05/15 05:00:44;;;;;;;;;;;16.70;89.90;;;;;;5110891;28;20353;-90
2022/05/15 05:03:09;;;;;;;;;;;16.80;89.60;;;;;;5110620;28;20312;-90
2022/05/15 05:05:35;;;;;;;;;;;16.90;89.00;;;;;;5110528;28;20287;-90
2022/05/15 05:08:00;;;;;;;;;;;17.10;88.40;;;;;;5109196;28;20329;-90
2022/05/15 05:10:26;;;;;;;;;;;17.30;88.30;;;;;;5110407;28;19962;-90
2022/05/15 05:12:52;;;;;;;;;;;17.40;87.70;;;;;;5110317;28;19979;-90
2022/05/15 05:15:17;;;;;;;;;;;17.40;87.50;;;;;;5110593;28;19946;-90
2022/05/15 05:17:43;;;;;;;;;;;17.50;87.00;;;;;;5110297;28;20390;-90
2022/05/15 05:20:12;;;;;;;;;;;17.60;86.60;;;;;;5110233;28;20330;-91
2022/05/15 05:22:37;;;;;;;;;;;17.70;86.70;;;;;;5110134;28;19962;-89
2022/05/15 05:27:12;;;;;;;;;;;17.80;86.60;;;;;;5111190;27;19912;-90
2022/05/15 05:29:38;;;;;;;;;;;17.90;86.70;;;;;;5111055;28;19930;-90
2022/05/15 05:32:04;;;;;;;;;;;17.90;86.70;;;;;;5110972;28;19944;-90
2022/05/15 05:34:29;;;;;;;;;;;17.90;86.50;;;;;;5110927;28;19908;-90
2022/05/15 05:36:55;;;;;;;;;;;17.90;86.40;;;;;;5110913;28;20298;-90
2022/05/15 05:39:21;;;;;;;;;;;18.00;86.10;;;;;;5110851;28;19933;-90
2022/05/15 05:41:47;;;;;;;;;;;18.10;85.90;;;;;;5110785;28;19946;-90
2022/05/15 05:44:12;;;;;;;;;;;18.20;85.30;;;;;;5110754;28;19908;-91
2022/05/15 05:46:38;;;;;;;;;;;18.30;84.90;;;;;;5110648;28;20077;-90
2022/05/15 05:49:03;;;;;;;;;;;18.40;84.90;;;;;;5110688;28;19932;-90
2022/05/15 05:51:29;;;;;;;;;;;18.50;84.90;;;;;;5110920;28;19925;-91
2022/05/15 05:53:54;;;;;;;;;;;18.60;85.00;;;;;;5110559;28;20040;-90
2022/05/15 05:56:20;;;;;;;;;;;18.60;84.90;;;;;;5110846;28;20015;-90
2022/05/15 05:58:46;;;;;;;;;;;18.70;85.20;;;;;;5110564;28;20336;-90
2022/05/15 06:01:13;;;;;;;;;;;18.80;85.00;;;;;;5110490;28;19920;-90
2022/05/15 06:06:23;;;;;;;;;;;18.90;83.30;;;;;;5138503;27;19926;-90
2022/05/15 06:08:48;;;;;;;;;;;19.00;83.50;;;;;;5110348;28;20303;-90
2022/05/15 06:11:14;;;;;;;;;;;19.10;83.30;;;;;;5110259;28;20350;-90
2022/05/15 06:13:39;;;;;;;;;;;19.20;82.90;;;;;;5110243;28;20368;-91
2022/05/15 06:16:08;;;;;;;;;;;19.20;82.90;;;;;;5110094;28;20277;-90
2022/05/15 06:18:35;;;;;;;;;;;19.30;81.20;;;;;;5110331;28;19923;-90
2022/05/15 06:21:00;;;;;;;;;;;19.40;81.00;;;;;;5110068;28;19912;-90
2022/05/15 06:23:26;;;;;;;;;;;19.50;80.90;;;;;;5109960;28;20347;-89
2022/05/15 06:25:51;;;;;;;;;;;19.60;79.90;;;;;;5110026;28;20346;-90
2022/05/15 06:28:17;;;;;;;;;;;19.70;78.50;;;;;;5110192;28;19930;-91
2022/05/15 06:30:42;;;;;;;;;;;19.80;78.70;;;;;;5109878;28;20007;-90
2022/05/15 06:33:08;;;;;;;;;;;19.90;78.90;;;;;;5109741;28;19961;-90
2022/05/15 06:35:34;;;;;;;;;;;20.00;78.40;;;;;;5109838;28;19920;-90
2022/05/15 06:38:00;;;;;;;;;;;20.10;78.70;;;;;;5099292;28;20101;-91
2022/05/15 06:40:26;;;;;;;;;;;20.20;79.10;;;;;;5096121;28;19908;-90
2022/05/15 06:42:52;;;;;;;;;;;20.30;78.50;;;;;;5096119;28;20272;-90
2022/05/15 06:45:18;;;;;;;;;;;20.30;78.20;;;;;;5095987;28;19988;-91
2022/05/15 06:47:44;;;;;;;;;;;20.40;78.10;;;;;;5096019;28;20315;-91
2022/05/15 06:50:10;;;;;;;;;;;20.50;78.00;;;;;;5096516;28;20318;-90
2022/05/15 06:52:37;;;;;;;;;;;20.60;76.30;;;;;;5095953;28;20431;-91
2022/05/15 06:55:06;;;;;;;;;;;20.70;76.50;;;;;;5095948;28;19908;-91
2022/05/15 06:57:33;;;;;;;;;;;20.80;76.80;;;;;;5095566;28;20355;-90
2022/05/15 07:00:00;;;;;;;;;;;20.90;77.00;;;;;;5096058;28;19931;-91
2022/05/15 07:02:26;;;;;;;;;;;21.00;77.10;;;;;;5095796;28;19916;-90
2022/05/15 07:04:52;;;;;;;;;;;21.10;77.90;;;;;;5095669;28;20441;-91
2022/05/15 07:07:18;;;;;;;;;;;21.10;75.60;;;;;;5095640;28;20007;-90
2022/05/15 07:09:43;;;;;;;;;;;21.30;74.30;;;;;;5095569;28;20323;-90
2022/05/15 07:12:10;;;;;;;;;;;21.30;73.10;;;;;;5095530;28;19908;-90
2022/05/15 07:14:36;;;;;;;;;;;21.40;72.80;;;;;;5095497;28;19948;-91
2022/05/15 07:17:02;;;;;;;;;;;21.50;72.10;;;;;;5095417;28;20357;-91
2022/05/15 07:19:31;;;;;;;;;;;21.60;72.00;;;;;;5095396;28;19912;-91
2022/05/15 07:22:14;;;;;;;;;;;21.80;72.40;;;;;;5095340;28;20003;-90
2022/05/15 07:27:32;;;;;;;;;;;21.90;72.10;;;;;;5111139;27;19943;-90
2022/05/15 07:29:57;;;;;;;;;;;22.10;71.50;;;;;;5111033;28;19912;-90
2022/05/15 07:32:23;;;;;;;;;;;22.20;72.50;;;;;;5110936;28;19957;-90
2022/05/15 07:34:48;;;;;;;;;;;22.30;70.90;;;;;;5110927;28;19954;-90
2022/05/15 07:37:16;;;;;;;;;;;22.30;69.60;;;;;;5109637;28;19987;-90
2022/05/15 07:39:42;;;;;;;;;;;22.50;68.50;;;;;;5110885;28;19915;-90
2022/05/15 07:42:08;;;;;;;;;;;22.50;67.80;;;;;;5110832;28;19994;-90
2022/05/15 07:44:33;;;;;;;;;;;22.60;67.20;;;;;;5110805;28;19909;-90
2022/05/15 07:46:59;;;;;;;;;;;22.70;65.70;;;;;;5110685;28;20325;-91
2022/05/15 07:49:24;;;;;;;;;;;22.80;65.70;;;;;;5110736;28;19931;-90
2022/05/15 07:51:50;;;;;;;;;;;22.80;65.80;;;;;;5110670;28;20305;-91
2022/05/15 07:54:16;;;;;;;;;;;22.90;66.60;;;;;;5110557;28;20269;-91
2022/05/15 07:56:42;;;;;;;;;;;22.90;65.10;;;;;;5110791;28;19956;-91
2022/05/15 07:59:08;;;;;;;;;;;23.00;64.90;;;;;;5110273;28;20003;-90
2022/05/15 08:01:34;;;;;;;;;;;23.10;64.50;;;;;;5110436;28;19919;-90
2022/05/15 08:03:59;;;;;;;;;;;23.20;64.80;;;;;;5110376;28;19908;-91
2022/05/15 08:09:09;;;;;;;;;;;23.30;64.50;;;;;;5110683;28;19957;-91
2022/05/15 08:11:36;;;;;;;;;;;23.30;65.40;;;;;;5110216;28;19912;-91
2022/05/15 08:14:02;;;;;;;;;;;23.30;65.60;;;;;;5110234;28;19908;-90
2022/05/15 08:16:28;;;;;;;;;;;23.30;65.40;;;;;;5110259;28;19908;-91
2022/05/15 08:24:23;;;;;;;;;;;23.60;62.90;;;;;;5110218;28;19915;-90
2022/05/15 08:26:49;;;;;;;;;;;23.70;62.40;;;;;;5109755;28;20285;-90
2022/05/15 08:29:15;;;;;;;;;;;23.70;66.20;;;;;;5109955;28;19912;-89
2022/05/15 08:31:41;;;;;;;;;;;23.70;64.30;;;;;;5109871;28;19908;-90
2022/05/15 08:34:07;;;;;;;;;;;23.70;64.40;;;;;;5109723;28;19995;-90
2022/05/15 08:36:33;;;;;;;;;;;23.80;66.00;;;;;;5109811;28;19953;-90
2022/05/15 08:38:58;;;;;;;;;;;23.80;67.30;;;;;;5095691;28;19912;-90
2022/05/15 08:41:30;;;;;;;;;;;23.80;64.10;;;;;;5096149;28;20262;-90
2022/05/15 08:44:01;;;;;;;;;;;23.90;65.80;;;;;;5096039;28;19994;-90
2022/05/15 08:46:46;;;;;;;;;;;24.00;65.00;;;;;;5095987;28;19938;-90
2022/05/15 08:49:21;;;;;;;;;;;24.00;62.50;;;;;;5095922;28;20514;-90
2022/05/15 08:51:55;;;;;;;;;;;24.00;62.20;;;;;;5095909;28;19908;-90
2022/05/15 08:54:21;;;;;;;;;;;24.10;62.00;;;;;;5095921;28;20003;-90
2022/05/15 08:56:49;;;;;;;;;;;24.20;61.80;;;;;;5095820;28;20004;-91
2022/05/15 08:59:23;;;;;;;;;;;24.30;62.20;;;;;;5095778;28;19918;-90
2022/05/15 09:01:50;;;;;;;;;;;24.30;62.30;;;;;;5095747;28;19915;-90
2022/05/15 09:04:16;;;;;;;;;;;24.40;62.20;;;;;;5095732;28;19908;-89
2022/05/15 09:06:44;;;;;;;;;;;24.50;63.40;;;;;;5095595;28;19966;-90
2022/05/15 09:09:13;;;;;;;;;;;24.50;62.20;;;;;;5095511;28;19908;-90
2022/05/15 09:11:55;;;;;;;;;;;24.60;61.30;;;;;;5095543;28;20254;-90
2022/05/15 09:14:39;;;;;;;;;;;24.60;60.30;;;;;;5095555;28;19916;-91
2022/05/15 09:17:40;;;;;;;;;;;24.60;60.10;;;;;;5095703;28;19912;-89
2022/05/15 09:20:18;;;;;;;;;;;24.80;61.50;;;;;;5052819;28;20397;-90
2022/05/15 09:22:50;;;;;;;;;;;24.80;59.90;;;;;;5090313;28;19908;-90
2022/05/15 09:25:18;;;;;;;;;;;24.80;60.50;;;;;;5095074;28;19911;-90
2022/05/15 09:27:56;;;;;;;;;;;24.90;59.60;;;;;;5095307;28;20069;-90
2022/05/15 09:30:21;;;;;;;;;;;24.90;57.50;;;;;;5095188;28;19909;-90
2022/05/15 09:32:54;;;;;;;;;;;25.00;58.80;;;;;;5095018;28;19908;-91
2022/05/15 09:35:38;;;;;;;;;;;25.00;58.20;;;;;;5095079;28;20006;-90
2022/05/15 09:43:35;;;;;;;;;;;25.20;59.10;;;;;;5094929;28;19915;-91
2022/05/15 09:46:12;;;;;;;;;;;25.20;58.50;;;;;;5095088;28;19912;-90
2022/05/15 09:48:40;;;;;;;;;;;25.20;58.20;;;;;;5094319;28;19957;-90
2022/05/15 09:51:11;;;;;;;;;;;25.30;58.90;;;;;;5094366;28;19909;-90
2022/05/15 09:53:40;;;;;;;;;;;25.40;58.70;;;;;;5094743;28;19908;-90
2022/05/15 09:56:13;;;;;;;;;;;25.50;57.40;;;;;;5094705;28;20371;-90
2022/05/15 09:58:41;;;;;;;;;;;25.60;58.80;;;;;;5094631;28;19931;-90
2022/05/15 10:01:18;;;;;;;;;;;25.80;60.60;;;;;;5094562;28;19909;-90
2022/05/15 10:03:47;;;;;;;;;;;25.90;56.90;;;;;;5094552;28;19912;-91
2022/05/15 10:06:19;;;;;;;;;;;25.90;58.30;;;;;;5094380;28;19912;-90
2022/05/15 10:08:45;;;;;;;;;;;26.10;58.80;;;;;;5094436;28;19961;-90
2022/05/15 10:11:17;;;;;;;;;;;26.20;56.60;;;;;;5094329;28;19912;-91
2022/05/15 10:13:50;;;;;;;;;;;26.30;55.20;;;;;;5094547;28;19908;-91
2022/05/15 10:16:30;;;;;;;;;;;26.40;56.90;;;;;;5094225;28;20407;-90
2022/05/15 10:18:59;;;;;;;;;;;26.50;57.30;;;;;;5092947;28;20000;-91
2022/05/15 10:21:28;;;;;;;;;;;26.50;55.10;;;;;;5094172;28;20353;-91
2022/05/15 10:23:57;;;;;;;;;;;26.30;54.30;;;;;;5094041;28;20359;-91
2022/05/15 10:26:26;;;;;;;;;;;26.40;55.70;;;;;;5093856;28;19927;-91
2022/05/15 10:28:55;;;;;;;;;;;26.50;54.20;;;;;;5094018;28;19909;-91
2022/05/15 10:31:21;;;;;;;;;;;26.60;55.90;;;;;;5093986;28;19948;-90
2022/05/15 10:33:48;;;;;;;;;;;26.70;55.80;;;;;;5094065;28;19943;-90
2022/05/15 10:36:13;;;;;;;;;;;26.70;56.20;;;;;;5093885;28;19915;-90
2022/05/15 10:38:39;;;;;;;;;;;26.70;54.60;;;;;;5093884;28;19908;-90
2022/05/15 10:41:30;;;;;;;;;;;26.70;57.10;;;;;;5093813;28;19912;-90
2022/05/15 10:44:11;;;;;;;;;;;26.70;54.00;;;;;;5091489;28;19915;-90
2022/05/15 10:46:39;;;;;;;;;;;26.70;54.50;;;;;;5093618;28;19934;-90
2022/05/15 10:49:14;;;;;;;;;;;26.70;54.60;;;;;;5093708;28;19908;-90
2022/05/15 10:51:54;;;;;;;;;;;26.90;53.00;;;;;;5093685;28;19944;-90
2022/05/15 10:57:24;;;;;;;;;;;27.00;52.30;;;;;;5093619;28;19915;-91
2022/05/15 11:00:08;;;;;;;;;;;27.10;52.60;;;;;;5093497;28;19908;-90
2022/05/15 11:02:52;;;;;;;;;;;27.30;52.90;;;;;;5093765;28;19908;-90
2022/05/15 11:06:16;;;;;;;;;;;27.30;51.70;;;;;;5111076;27;20295;-91
2022/05/15 11:08:48;;;;;;;;;;;27.60;50.40;;;;;;5110986;28;19912;-90
2022/05/15 11:14:22;;;;;;;;;;;27.50;48.80;;;;;;5111127;27;19934;-91
2022/05/15 11:16:50;;;;;;;;;;;27.40;49.50;;;;;;5111078;28;19912;-90
2022/05/15 11:19:25;;;;;;;;;;;27.40;50.30;;;;;;5111046;28;20373;-91
2022/05/15 11:22:10;;;;;;;;;;;27.60;50.10;;;;;;5110972;28;19934;-91
2022/05/15 11:24:42;;;;;;;;;;;27.80;49.10;;;;;;5110891;28;19908;-91
2022/05/15 11:27:13;;;;;;;;;;;28.10;50.60;;;;;;5110888;28;20372;-91
2022/05/15 11:29:41;;;;;;;;;;;28.30;48.30;;;;;;5110852;28;19912;-91
2022/05/15 11:32:26;;;;;;;;;;;28.70;47.30;;;;;;5110612;28;19915;-91
2022/05/15 11:35:12;;;;;;;;;;;29.00;46.90;;;;;;5110666;28;19999;-91
2022/05/15 11:37:38;;;;;;;;;;;29.10;47.80;;;;;;5110672;28;19914;-91
2022/05/15 11:40:04;;;;;;;;;;;29.30;47.80;;;;;;5110665;28;19995;-91
2022/05/15 11:42:30;;;;;;;;;;;29.50;45.80;;;;;;5110540;28;19915;-91
2022/05/15 11:45:16;;;;;;;;;;;29.30;47.40;;;;;;5110528;28;19908;-91
2022/05/15 11:47:56;;;;;;;;;;;29.70;47.00;;;;;;5110359;28;19909;-91
2022/05/15 11:50:37;;;;;;;;;;;30.20;45.90;;;;;;5110462;28;19950;-91
2022/05/15 11:53:12;;;;;;;;;;;30.60;44.20;;;;;;5110282;28;19919;-91
2022/05/15 11:55:45;;;;;;;;;;;30.70;42.60;;;;;;5110326;28;19947;-91
2022/05/15 11:58:20;;;;;;;;;;;30.60;44.40;;;;;;5110226;28;19908;-91
2022/05/15 12:01:18;;;;;;;;;;;30.50;44.80;;;;;;5110272;28;19908;-91
2022/05/15 12:03:46;;;;;;;;;;;30.40;42.80;;;;;;5086787;28;19908;-91
2022/05/15 12:06:13;;;;;;;;;;;29.70;43.50;;;;;;5110128;28;19915;-91
2022/05/15 12:08:40;;;;;;;;;;;29.80;47.10;;;;;;5110068;28;19909;-91
2022/05/15 12:11:18;;;;;;;;;;;29.70;44.50;;;;;;5110044;28;19957;-91
2022/05/15 12:13:45;;;;;;;;;;;29.80;45.40;;;;;;5109605;28;19966;-90
2022/05/15 12:16:17;;;;;;;;;;;30.10;43.80;;;;;;5109851;28;19912;-91
2022/05/15 12:18:45;;;;;;;;;;;30.10;45.00;;;;;;5109871;28;19946;-91
2022/05/15 12:21:14;;;;;;;;;;;30.70;42.60;;;;;;5109793;28;19953;-91
2022/05/15 12:24:27;;;;;;;;;;;31.30;42.80;;;;;;5107320;28;19909;-91
2022/05/15 12:26:49;;;;;;;;;;;31.90;42.70;;;;;;5096058;28;20373;-91
2022/05/15 12:29:26;;;;;;;;;;;31.50;42.20;;;;;;5096130;28;19951;-90
2022/05/15 12:31:53;;;;;;;;;;;31.10;41.10;;;;;;5095986;28;19938;-90
2022/05/15 12:34:31;;;;;;;;;;;30.60;42.90;;;;;;5095960;28;19912;-91
2022/05/15 12:37:01;;;;;;;;;;;30.20;43.00;;;;;;5095921;28;19908;-91
2022/05/15 12:39:28;;;;;;;;;;;30.50;43.50;;;;;;5095913;28;19908;-91
2022/05/15 12:41:59;;;;;;;;;;;30.70;42.80;;;;;;5095878;28;19943;-91
2022/05/15 12:44:35;;;;;;;;;;;31.70;40.90;;;;;;5095835;28;19958;-91
2022/05/15 12:47:01;;;;;;;;;;;32.60;39.60;;;;;;5095770;28;19908;-91
2022/05/15 12:49:31;;;;;;;;;;;32.10;39.70;;;;;;5095741;28;19908;-91
2022/05/15 12:52:09;;;;;;;;;;;32.20;39.40;;;;;;5095581;28;20387;-91
2022/05/15 12:54:34;;;;;;;;;;;32.80;38.30;;;;;;5095885;28;19908;-91
2022/05/15 12:57:01;;;;;;;;;;;32.90;38.10;;;;;;5095617;28;19915;-91
2022/05/15 12:59:27;;;;;;;;;;;34.00;35.80;;;;;;5095529;28;19908;-91
2022/05/15 13:01:54;;;;;;;;;;;34.50;36.60;;;;;;5095504;28;19909;-91
2022/05/15 13:04:23;;;;;;;;;;;33.80;35.60;;;;;;5095433;28;20266;-91
2022/05/15 13:06:52;;;;;;;;;;;32.90;38.10;;;;;;5095430;28;19912;-91
2022/05/15 13:09:23;;;;;;;;;;;32.10;39.30;;;;;;5095312;28;20288;-91
2022/05/15 13:11:56;;;;;;;;;;;32.20;39.10;;;;;;5095180;28;19955;-91
2022/05/15 13:14:25;;;;;;;;;;;32.90;37.30;;;;;;5095129;28;19962;-91
2022/05/15 13:16:54;;;;;;;;;;;33.80;36.50;;;;;;5095180;28;19908;-91
2022/05/15 13:20:59;;;;;;;;;;;34.50;37.70;;;;;;5131673;27;19918;-91
2022/05/15 13:23:27;;;;;;;;;;;33.80;36.80;;;;;;5131519;27;19961;-91
2022/05/15 13:25:54;;;;;;;;;;;34.30;36.10;;;;;;5131559;27;19911;-92
2022/05/15 13:28:20;;;;;;;;;;;35.60;35.50;;;;;;5131481;27;19907;-92
2022/05/15 13:30:46;;;;;;;;;;;36.50;33.60;;;;;;5131391;27;20357;-91
2022/05/15 13:33:16;;;;;;;;;;;35.90;33.60;;;;;;5131315;27;19930;-91
2022/05/15 13:35:52;;;;;;;;;;;35.50;34.10;;;;;;5131361;27;19908;-91
2022/05/15 13:38:18;;;;;;;;;;;35.90;33.80;;;;;;5131271;27;20391;-91
2022/05/15 13:43:34;;;;;;;;;;;35.20;34.20;;;;;;5131526;28;19945;-91
2022/05/15 13:46:01;;;;;;;;;;;35.40;32.90;;;;;;5131205;27;19908;-92
2022/05/15 13:48:27;;;;;;;;;;;36.10;33.00;;;;;;5131136;27;19915;-91
2022/05/15 13:50:54;;;;;;;;;;;35.90;33.40;;;;;;5131042;27;19912;-91
2022/05/15 13:53:19;;;;;;;;;;;34.70;34.70;;;;;;5131010;27;19907;-91
2022/05/15 13:55:46;;;;;;;;;;;33.90;36.30;;;;;;5130933;27;19915;-91
2022/05/15 13:58:12;;;;;;;;;;;33.10;37.20;;;;;;5131130;27;19908;-91
2022/05/15 14:00:39;;;;;;;;;;;32.60;37.40;;;;;;5130821;27;20268;-91
2022/05/15 14:03:06;;;;;;;;;;;32.50;39.40;;;;;;5130863;27;20169;-91
2022/05/15 14:05:36;;;;;;;;;;;32.70;38.40;;;;;;5130813;27;19907;-91
2022/05/15 14:08:20;;;;;;;;;;;33.00;37.80;;;;;;5130754;27;19914;-91
2022/05/15 14:10:59;;;;;;;;;;;33.50;37.80;;;;;;5130678;27;19915;-91
2022/05/15 14:13:29;;;;;;;;;;;34.70;35.90;;;;;;5130637;27;19915;-91
2022/05/15 14:15:55;;;;;;;;;;;35.30;33.60;;;;;;5130550;27;19990;-91
2022/05/15 14:18:27;;;;;;;;;;;35.90;32.40;;;;;;5130566;27;19908;-91
2022/05/15 14:20:54;;;;;;;;;;;35.50;34.00;;;;;;5130450;27;19916;-91
2022/05/15 14:23:23;;;;;;;;;;;35.80;33.60;;;;;;5129073;28;20264;-92
2022/05/15 14:25:49;;;;;;;;;;;36.50;32.10;;;;;;5130489;27;19911;-91
2022/05/15 14:28:15;;;;;;;;;;;37.40;33.10;;;;;;5130346;27;19933;-91
2022/05/15 14:30:44;;;;;;;;;;;38.20;30.90;;;;;;5125294;27;19952;-91
2022/05/15 14:33:10;;;;;;;;;;;38.60;30.50;;;;;;5115128;28;20346;-91
2022/05/15 14:35:49;;;;;;;;;;;38.90;30.10;;;;;;5116536;28;19908;-91
2022/05/15 14:38:14;;;;;;;;;;;39.10;30.70;;;;;;5116736;28;19908;-91
2022/05/15 14:40:40;;;;;;;;;;;38.30;29.60;;;;;;5116337;28;20281;-91
2022/05/15 14:43:05;;;;;;;;;;;36.70;29.90;;;;;;5116357;28;19907;-91
2022/05/15 14:45:36;;;;;;;;;;;36.60;30.90;;;;;;5116411;28;19908;-91
2022/05/15 14:48:04;;;;;;;;;;;36.10;31.50;;;;;;5116292;27;20462;-91
2022/05/15 14:50:31;;;;;;;;;;;35.50;32.40;;;;;;5116540;28;19908;-91
2022/05/15 14:52:57;;;;;;;;;;;34.90;34.80;;;;;;5116245;28;19908;-91
2022/05/15 14:58:11;;;;;;;;;;;34.20;35.30;;;;;;5116390;28;19915;-91
2022/05/15 15:00:36;;;;;;;;;;;33.90;34.60;;;;;;5115978;28;19911;-91
2022/05/15 15:03:02;;;;;;;;;;;33.20;37.60;;;;;;5116018;27;19995;-91
2022/05/15 15:05:44;;;;;;;;;;;32.90;37.80;;;;;;5115969;28;19908;-91
2022/05/15 15:08:10;;;;;;;;;;;33.50;35.50;;;;;;5115951;28;19914;-91
2022/05/15 15:10:37;;;;;;;;;;;34.30;34.70;;;;;;5115871;28;19907;-91